Sheridan, WY

1:49 PM MST on March 02, 2015 (GMT -0700)
Johnson County | Change Station
CLOSE
Current Station
Airport
Location: Buffalo,
Elevation: 4967 ft
Nearby Weather Stations
Active Advisory: Winter Storm Warning

Elev 4967 ft 44.38 °N, 106.72 °W | Updated 56 minutes ago

Partly Cloudy
Partly Cloudy
38 °F
Feels Like 36 °F
N
4
Wind Variable Wind from ESE

Today
High -- | Low -- °F
--% Chance of Precip.
Yesterday
High -- | Low -- °F
Precip. -- in
6:44 AM 5:56 PM
Waxing Gibbous, 93% visible
Pressure 29.84 in
Visibility 10.0 miles
Clouds Clear
Windchill 36 °F
Dew Point 4 °F
Humidity 24%
Rainfall 0.00 in
Snow Depth Not available.
UV 5 out of 12
Pollen .40 out of 12
Air Quality Not available.
Flu Activity Not available.
METAR KBYG 021953Z AUTO 12003KT 10SM CLR 03/M16 A2974 RMK AO2 SLP103 T00331156 $

More Conditions Fewer Conditions

Pressure 29.84 in
Visibility 10.0 miles
Clouds Clear
Windchill 36 °F
Dew Point 4 °F
Humidity 24%
Rainfall 0.00 in
Snow Depth Not available.
UV 5 out of 12
Pollen .40 out of 12
Air Quality Not available.
Flu Activity Not available.
METAR KBYG 021953Z AUTO 12003KT 10SM CLR 03/M16 A2974 RMK AO2 SLP103 T00331156 $

More Conditions Fewer Conditions

10-Day Weather Forecast

Almanac

Astronomy

Mar. 02, 2015 Rise Set
Actual Time
Civil Twilight
Nautical Twilight
Astronomical Twilight
Moon
Length of Visible Light
Length of Day
Tomorrow will be .
, % of the Moon is Illuminated

Today's Extremes

State Highs State Lows

Community

WunderPhotos

Upload Photos

1,801,941 photos uploaded!

WunderBlogs® & News

Nearby

Air Quality

  Air Quality AQ Index Pollutant
Not available.

Snow Depth

Station Depth Elevation

Earthquake Activity

City Distance Mag. Time & Date
Minimum magnitude displayed is 2.5.

Coastal Water Temperatures

Place Temperature

Nearby Weather Stations

Winter Storm Warning
Statement as of 9:08 AM MST on March 02, 2015

... Winter Storm Warning remains in effect from 6 PM this evening
to noon MST Tuesday...

A Winter Storm Warning for heavy snow and blowing snow remains in
effect from 6 PM this evening to noon MST Tuesday.

* Timing... this evening through noon on Tuesday

* impacts... hazardous driving conditions on area roadways. These
conditions will be dangerous for Young livestock.

* Snow accumulation... 6 to 12 inches in the beartooth and Red
Lodge foothills... with 3 to 6 inches in the foothills of the
big horns.

* Winds... north at 20 to 30 mph.

* Wind chill values... 15 to 25 below zero.

Precautionary/preparedness actions...

A Winter Storm Warning means a significant amount of snow is
expected or occurring. Strong winds are also possible. This will
make travel very hazardous or impossible.